createdAt,value
2022-11-05T00:02:20.668Z,9.03
2022-11-05T00:05:00.866Z,9.01
2022-11-05T00:07:51.035Z,9.00
2022-11-05T00:10:26.436Z,8.96
2022-11-05T00:13:11.773Z,8.89
2022-11-05T00:15:51.438Z,8.85
2022-11-05T00:18:19.814Z,8.84
2022-11-05T00:20:47.923Z,8.83
2022-11-05T00:23:31.944Z,8.83
2022-11-05T00:26:02.260Z,8.80
2022-11-05T00:28:32.152Z,8.75
2022-11-05T00:31:04.779Z,8.72
2022-11-05T00:33:33.188Z,8.69
2022-11-05T00:36:03.189Z,8.67
2022-11-05T00:38:31.230Z,8.64
2022-11-05T00:40:59.496Z,8.58
2022-11-05T00:43:43.693Z,8.51
2022-11-05T00:46:11.752Z,8.50
2022-11-05T00:48:53.511Z,8.49
2022-11-05T00:51:22.721Z,8.48
2022-11-05T00:53:51.033Z,8.47
2022-11-05T00:56:18.934Z,8.48
2022-11-05T00:58:47.006Z,8.51
2022-11-05T01:01:15.775Z,8.57
2022-11-05T01:03:51.441Z,8.62
2022-11-05T01:06:19.982Z,8.69
2022-11-05T01:08:49.005Z,8.77
2022-11-05T01:11:35.063Z,8.83
2022-11-05T01:14:05.450Z,8.88
2022-11-05T01:16:33.895Z,8.88
2022-11-05T01:19:04.163Z,8.90
2022-11-05T01:21:32.314Z,8.92
2022-11-05T01:24:01.256Z,8.91
2022-11-05T01:26:29.327Z,8.91
2022-11-05T01:29:00.720Z,8.83
2022-11-05T01:31:29.191Z,8.79
2022-11-05T01:33:57.182Z,8.78
2022-11-05T01:36:25.182Z,8.79
2022-11-05T01:38:53.175Z,8.78
2022-11-05T01:41:21.261Z,8.75
2022-11-05T01:43:52.782Z,8.67
2022-11-05T01:46:27.848Z,8.61
2022-11-05T01:49:03.266Z,8.58
2022-11-05T01:51:32.358Z,8.49
2022-11-05T01:54:05.275Z,8.43
2022-11-05T01:56:47.990Z,8.43
2022-11-05T01:59:26.294Z,8.46
2022-11-05T02:01:55.092Z,8.50
2022-11-05T02:04:30.617Z,8.54
2022-11-05T02:06:59.689Z,8.57
2022-11-05T02:09:34.943Z,8.60
2022-11-05T02:12:03.522Z,8.66
2022-11-05T02:14:31.524Z,8.69
2022-11-05T02:17:17.827Z,8.72
2022-11-05T02:20:10.445Z,8.78
2022-11-05T02:23:04.713Z,8.82
2022-11-05T02:26:11.947Z,8.82
2022-11-05T02:29:04.864Z,8.89
2022-11-05T02:32:05.395Z,8.97
2022-11-05T02:34:52.469Z,9.00
2022-11-05T02:37:42.568Z,8.98
2022-11-05T02:40:42.925Z,8.97
2022-11-05T02:43:28.039Z,8.96
2022-11-05T02:46:20.997Z,8.85
2022-11-05T02:49:04.324Z,8.77
2022-11-05T02:51:48.023Z,8.74
2022-11-05T02:54:38.776Z,8.69
2022-11-05T02:57:07.204Z,8.69
2022-11-05T02:59:34.976Z,8.68
2022-11-05T03:02:03.976Z,8.70
2022-11-05T03:04:32.515Z,8.68
2022-11-05T03:07:17.249Z,8.68
2022-11-05T03:10:07.140Z,8.67
2022-11-05T03:13:04.391Z,8.64
2022-11-05T03:15:55.006Z,8.62
2022-11-05T03:18:39.555Z,8.61
2022-11-05T03:21:25.955Z,8.62
2022-11-05T03:24:02.222Z,8.56
2022-11-05T03:26:35.840Z,8.51
2022-11-05T03:29:11.680Z,8.53
2022-11-05T03:31:41.796Z,8.57
2022-11-05T03:34:13.504Z,8.61
2022-11-05T03:36:47.153Z,8.66
2022-11-05T03:39:21.882Z,8.70
2022-11-05T03:41:54.005Z,8.74
2022-11-05T03:44:39.115Z,8.77
2022-11-05T03:47:11.697Z,8.83
2022-11-05T03:49:50.944Z,8.86
2022-11-05T03:52:23.111Z,8.88
2022-11-05T03:54:50.959Z,8.84
2022-11-05T03:57:25.888Z,8.83
2022-11-05T03:59:53.809Z,8.83
2022-11-05T04:02:25.580Z,8.80
2022-11-05T04:04:55.045Z,8.74
2022-11-05T04:07:37.855Z,8.68
2022-11-05T04:10:18.072Z,8.59
2022-11-05T04:12:58.164Z,8.58
2022-11-05T04:15:26.961Z,8.58
2022-11-05T04:17:58.984Z,8.57
2022-11-05T04:20:38.673Z,8.55
2022-11-05T04:23:18.818Z,8.54
2022-11-05T04:25:46.686Z,8.52
2022-11-05T04:28:15.167Z,8.50
2022-11-05T04:30:46.106Z,8.48
2022-11-05T04:33:16.026Z,8.45
2022-11-05T04:35:46.816Z,8.41
2022-11-05T04:38:18.413Z,8.39
2022-11-05T04:40:47.720Z,8.39
2022-11-05T04:43:19.204Z,8.44
2022-11-05T04:45:47.549Z,8.48
2022-11-05T04:48:15.315Z,8.52
2022-11-05T04:50:43.180Z,8.58
2022-11-05T04:53:11.336Z,8.62
2022-11-05T04:55:39.425Z,8.65
2022-11-05T04:58:07.313Z,8.69
2022-11-05T05:00:35.494Z,8.76
2022-11-05T05:03:03.651Z,8.79
2022-11-05T05:05:31.586Z,8.80
2022-11-05T05:08:03.681Z,8.80
2022-11-05T05:10:32.270Z,8.77
2022-11-05T05:13:00.093Z,8.80
2022-11-05T05:15:27.894Z,8.81
2022-11-05T05:17:56.400Z,8.82
2022-11-05T05:20:42.368Z,8.83
2022-11-05T05:23:10.947Z,8.81
2022-11-05T05:25:39.030Z,8.77
2022-11-05T05:28:06.896Z,8.70
2022-11-05T05:30:34.861Z,8.64
2022-11-05T05:33:03.985Z,8.61
2022-11-05T05:35:31.917Z,8.59
2022-11-05T05:37:59.876Z,8.57
2022-11-05T05:40:27.582Z,8.57
2022-11-05T05:42:55.866Z,8.55
2022-11-05T05:45:23.766Z,8.56
2022-11-05T05:47:51.731Z,8.56
2022-11-05T05:50:19.627Z,8.57
2022-11-05T05:52:53.593Z,8.60
2022-11-05T05:55:21.603Z,8.66
2022-11-05T05:57:49.605Z,8.68
2022-11-05T06:00:17.823Z,8.71
2022-11-05T06:02:45.759Z,8.79
2022-11-05T06:05:13.891Z,8.88
2022-11-05T06:07:41.785Z,8.98
2022-11-05T06:10:09.897Z,9.09
2022-11-05T06:12:37.666Z,9.20
2022-11-05T06:15:05.952Z,9.30
2022-11-05T06:17:34.081Z,9.40
2022-11-05T06:20:01.912Z,9.45
2022-11-05T06:22:30.410Z,9.49
2022-11-05T06:24:58.261Z,9.49
2022-11-05T06:27:26.068Z,9.51
2022-11-05T06:29:54.131Z,9.53
2022-11-05T06:32:21.926Z,9.53
2022-11-05T06:34:49.713Z,9.50
2022-11-05T06:37:17.521Z,9.52
2022-11-05T06:39:45.335Z,9.60
2022-11-05T06:42:20.561Z,9.65
2022-11-05T06:44:48.640Z,9.69
2022-11-05T06:47:16.468Z,9.75
2022-11-05T06:49:44.293Z,9.81
2022-11-05T06:52:13.804Z,9.83
2022-11-05T06:54:43.907Z,9.86
2022-11-05T06:57:12.435Z,9.88
2022-11-05T06:59:41.254Z,9.91
2022-11-05T07:02:12.898Z,9.94
2022-11-05T07:04:41.908Z,9.99
2022-11-05T07:07:09.953Z,10.01
2022-11-05T07:09:40.796Z,10.03
2022-11-05T07:12:10.317Z,10.04
2022-11-05T07:14:38.234Z,10.07
2022-11-05T07:17:06.145Z,10.11
2022-11-05T07:19:34.034Z,10.12
2022-11-05T07:22:02.058Z,10.03
2022-11-05T07:24:29.956Z,9.95
2022-11-05T07:26:58.070Z,9.98
2022-11-05T07:29:26.095Z,10.07
2022-11-05T07:31:54.156Z,10.14
2022-11-05T07:34:22.253Z,10.18
2022-11-05T07:36:50.137Z,10.27
2022-11-05T07:39:18.380Z,10.42
2022-11-05T07:41:46.317Z,10.53
2022-11-05T07:44:14.536Z,10.63
2022-11-05T07:46:42.488Z,10.71
2022-11-05T07:49:10.458Z,10.77
2022-11-05T07:51:38.522Z,10.79
2022-11-05T07:54:06.600Z,10.83
2022-11-05T07:56:34.681Z,10.86
2022-11-05T07:59:03.310Z,10.86
2022-11-05T08:01:31.551Z,10.87
2022-11-05T08:03:59.928Z,10.91
2022-11-05T08:06:28.325Z,10.97
2022-11-05T08:08:57.124Z,11.03
2022-11-05T08:11:25.457Z,11.09
2022-11-05T08:13:55.820Z,11.13
2022-11-05T08:16:27.260Z,11.22
2022-11-05T08:18:56.046Z,11.33
2022-11-05T08:21:24.240Z,11.45
2022-11-05T08:23:53.225Z,11.57
2022-11-05T08:26:21.584Z,11.73
2022-11-05T08:28:52.320Z,11.80
2022-11-05T08:31:22.740Z,11.92
2022-11-05T08:33:52.640Z,12.10
2022-11-05T08:36:20.863Z,12.22
2022-11-05T08:38:49.157Z,12.28
2022-11-05T08:41:17.360Z,12.35
2022-11-05T08:43:46.251Z,12.38
2022-11-05T08:46:14.715Z,12.36
2022-11-05T08:48:47.758Z,12.45
2022-11-05T08:51:19.738Z,12.61
2022-11-05T08:53:48.464Z,12.72
2022-11-05T08:56:18.677Z,12.85
2022-11-05T08:58:49.049Z,13.03
2022-11-05T09:01:18.636Z,13.26
2022-11-05T09:03:51.396Z,13.44
2022-11-05T09:06:21.731Z,13.37
2022-11-05T09:08:50.500Z,13.42
2022-11-05T09:11:22.211Z,13.48
2022-11-05T09:13:50.960Z,13.48
2022-11-05T09:16:25.443Z,13.53
2022-11-05T09:19:07.153Z,13.55
2022-11-05T09:21:39.620Z,13.60
2022-11-05T09:24:09.639Z,13.70
2022-11-05T09:26:37.788Z,13.80
2022-11-05T09:29:10.323Z,13.87
2022-11-05T09:31:44.867Z,13.91
2022-11-05T09:34:13.200Z,13.86
2022-11-05T09:36:42.904Z,13.86
2022-11-05T09:39:13.512Z,13.89
2022-11-05T09:41:46.424Z,13.93
2022-11-05T09:44:22.641Z,13.96
2022-11-05T09:47:02.606Z,14.00
2022-11-05T09:49:40.571Z,13.99
2022-11-05T09:52:24.649Z,14.00
2022-11-05T09:54:54.834Z,13.98
2022-11-05T09:57:31.103Z,13.96
2022-11-05T10:00:06.680Z,14.13
2022-11-05T10:02:56.956Z,14.28
2022-11-05T10:05:30.113Z,14.45
2022-11-05T10:08:14.250Z,14.76
2022-11-05T10:10:55.249Z,15.03
2022-11-05T10:13:43.820Z,15.30
2022-11-05T10:16:31.333Z,15.36
2022-11-05T10:19:25.195Z,15.43
2022-11-05T10:22:13.884Z,15.54
2022-11-05T10:24:47.942Z,15.76
2022-11-05T10:27:41.128Z,15.91
2022-11-05T10:30:23.817Z,15.86
2022-11-05T10:32:56.811Z,15.92
2022-11-05T10:35:30.889Z,16.07
2022-11-05T10:37:59.457Z,16.20
2022-11-05T10:40:56.330Z,16.30
2022-11-05T10:43:43.087Z,16.35
2022-11-05T10:46:45.835Z,16.46
2022-11-05T10:49:33.842Z,16.61
2022-11-05T10:52:25.471Z,16.63
2022-11-05T10:55:02.378Z,16.75
2022-11-05T10:57:44.321Z,17.00
2022-11-05T11:00:28.466Z,17.21
2022-11-05T11:03:27.685Z,17.32
2022-11-05T11:06:13.512Z,17.30
2022-11-05T11:08:45.523Z,17.27
2022-11-05T11:11:41.021Z,17.34
2022-11-05T11:14:24.619Z,17.29
2022-11-05T11:16:57.552Z,17.23
2022-11-05T11:19:54.715Z,17.16
2022-11-05T11:22:28.867Z,17.06
2022-11-05T11:25:37.192Z,16.96
2022-11-05T11:28:34.824Z,16.76
2022-11-05T11:31:22.646Z,16.55
2022-11-05T11:34:13.242Z,16.42
2022-11-05T11:36:50.701Z,16.47
2022-11-05T11:39:35.868Z,16.50
2022-11-05T11:42:17.255Z,16.57
2022-11-05T11:44:50.348Z,16.62
2022-11-05T11:47:23.058Z,16.70
2022-11-05T11:50:02.063Z,16.73
2022-11-05T11:52:38.191Z,16.77
2022-11-05T11:55:20.619Z,16.90
2022-11-05T11:57:54.023Z,17.01
2022-11-05T12:00:27.114Z,17.04
2022-11-05T12:03:21.727Z,16.96
2022-11-05T12:06:16.796Z,17.03
2022-11-05T12:09:03.679Z,17.09
2022-11-05T12:11:48.795Z,17.17
2022-11-05T12:14:45.155Z,17.24
2022-11-05T12:17:35.528Z,17.26
2022-11-05T12:20:27.947Z,17.25
2022-11-05T12:23:18.340Z,17.19
2022-11-05T12:26:07.414Z,17.26
2022-11-05T12:29:17.392Z,17.09
2022-11-05T12:32:20.659Z,16.95
2022-11-05T12:35:18.343Z,16.83
2022-11-05T12:38:02.023Z,16.75
2022-11-05T12:41:10.794Z,16.71
2022-11-05T12:43:55.787Z,16.74
2022-11-05T12:46:46.334Z,16.67
2022-11-05T12:49:35.123Z,16.57
2022-11-05T12:52:20.120Z,16.49
2022-11-05T12:55:04.255Z,16.40
2022-11-05T12:57:38.169Z,16.44
2022-11-05T13:00:20.483Z,16.48
2022-11-05T13:02:58.369Z,16.51
2022-11-05T13:05:39.951Z,16.55
2022-11-05T13:08:23.761Z,16.54
2022-11-05T13:11:00.183Z,16.64
2022-11-05T13:13:38.803Z,16.75
2022-11-05T13:16:25.095Z,16.79
2022-11-05T13:19:15.419Z,16.87
2022-11-05T13:21:52.413Z,16.85
2022-11-05T13:24:27.265Z,16.73
2022-11-05T13:27:32.903Z,16.55
2022-11-05T13:30:15.985Z,16.47
2022-11-05T13:32:49.600Z,16.38
2022-11-05T13:35:41.269Z,16.35
2022-11-05T13:38:33.438Z,16.26
2022-11-05T13:41:25.832Z,16.17
2022-11-05T13:44:23.049Z,16.11
2022-11-05T13:47:22.114Z,15.97
2022-11-05T13:50:24.487Z,15.86
2022-11-05T13:53:15.796Z,15.81
2022-11-05T13:56:02.786Z,15.73
2022-11-05T13:58:55.703Z,15.65
2022-11-05T14:01:46.765Z,15.53
2022-11-05T14:04:26.837Z,15.41
2022-11-05T14:07:09.882Z,15.31
2022-11-05T14:09:42.803Z,15.16
2022-11-05T14:12:30.053Z,15.06
2022-11-05T14:15:18.124Z,15.01
2022-11-05T14:18:01.550Z,14.96
2022-11-05T14:21:03.744Z,14.86
2022-11-05T14:23:50.639Z,14.79
2022-11-05T14:26:24.055Z,14.73
2022-11-05T14:29:22.142Z,14.65
2022-11-05T14:32:09.471Z,14.57
2022-11-05T14:34:45.180Z,14.50
2022-11-05T14:37:28.280Z,14.42
2022-11-05T14:40:01.056Z,14.36
2022-11-05T14:42:31.086Z,14.31
2022-11-05T14:45:29.947Z,14.21
2022-11-05T14:48:35.313Z,14.14
2022-11-05T14:51:28.215Z,14.05
2022-11-05T14:54:14.036Z,13.95
2022-11-05T14:56:45.154Z,13.88
2022-11-05T14:59:49.713Z,13.82
2022-11-05T15:02:23.008Z,13.76
2022-11-05T15:04:53.174Z,13.72
2022-11-05T15:07:33.697Z,13.67
2022-11-05T15:10:14.325Z,13.61
2022-11-05T15:12:50.475Z,13.55
2022-11-05T15:15:24.171Z,13.51
2022-11-05T15:18:03.232Z,13.47
2022-11-05T15:20:40.360Z,13.43
2022-11-05T15:23:14.540Z,13.40
2022-11-05T15:25:56.117Z,13.36
2022-11-05T15:28:43.950Z,13.31
2022-11-05T15:31:36.798Z,13.25
2022-11-05T15:34:23.433Z,13.21
2022-11-05T15:36:57.669Z,13.18
2022-11-05T15:39:43.620Z,13.14
2022-11-05T15:42:16.479Z,13.12
2022-11-05T15:44:47.797Z,13.13
2022-11-05T15:47:20.044Z,13.13
2022-11-05T15:49:51.766Z,13.13
2022-11-05T15:52:23.534Z,13.15
2022-11-05T15:55:23.548Z,13.17
2022-11-05T15:58:03.259Z,13.19
2022-11-05T16:00:35.185Z,13.20
2022-11-05T16:03:31.510Z,13.20
2022-11-05T16:06:01.577Z,13.23
2022-11-05T16:08:31.615Z,13.23
2022-11-05T16:11:00.862Z,13.25
2022-11-05T16:13:36.100Z,13.25
2022-11-05T16:16:21.355Z,13.23
2022-11-05T16:18:49.445Z,13.19
2022-11-05T16:21:22.571Z,13.13
2022-11-05T16:23:58.068Z,13.08
2022-11-05T16:29:39.111Z,12.98
2022-11-05T16:32:30.696Z,12.94
2022-11-05T16:35:03.041Z,12.89
2022-11-05T16:37:39.724Z,12.86
2022-11-05T16:40:15.664Z,12.82
2022-11-05T16:42:45.397Z,12.79
2022-11-05T16:45:14.753Z,12.75
2022-11-05T16:47:44.218Z,12.70
2022-11-05T16:50:21.489Z,12.66
2022-11-05T16:52:49.659Z,12.59
2022-11-05T16:55:18.475Z,12.54
2022-11-05T16:57:51.096Z,12.50
2022-11-05T17:00:21.841Z,12.47
2022-11-05T17:02:50.838Z,12.45
2022-11-05T17:05:23.113Z,12.43
2022-11-05T17:07:53.887Z,12.42
2022-11-05T17:10:24.278Z,12.40
2022-11-05T17:12:53.068Z,12.38
2022-11-05T17:15:24.644Z,12.37
2022-11-05T17:17:54.519Z,12.36
2022-11-05T17:20:41.645Z,12.35
2022-11-05T17:23:12.235Z,12.37
2022-11-05T17:25:41.883Z,12.39
2022-11-05T17:28:11.330Z,12.42
2022-11-05T17:30:41.677Z,12.45
2022-11-05T17:33:11.495Z,12.48
2022-11-05T17:35:40.609Z,12.50
2022-11-05T17:38:10.392Z,12.53
2022-11-05T17:40:39.341Z,12.53
2022-11-05T17:43:07.597Z,12.56
2022-11-05T17:45:41.598Z,12.59
2022-11-05T17:48:10.395Z,12.62
2022-11-05T17:50:41.052Z,12.66
2022-11-05T17:53:09.637Z,12.66
2022-11-05T17:55:40.349Z,12.64
2022-11-05T17:58:08.713Z,12.62
2022-11-05T18:00:37.595Z,12.61
2022-11-05T18:03:05.533Z,12.61
2022-11-05T18:05:34.331Z,12.58
2022-11-05T18:08:02.348Z,12.56
2022-11-05T18:10:30.139Z,12.53
2022-11-05T18:12:58.016Z,12.49
2022-11-05T18:15:25.841Z,12.42
2022-11-05T18:17:53.664Z,12.28
2022-11-05T18:20:21.565Z,12.08
2022-11-05T18:22:50.714Z,11.99
2022-11-05T18:25:19.158Z,11.89
2022-11-05T18:27:46.928Z,11.84
2022-11-05T18:30:15.896Z,11.81
2022-11-05T18:32:44.671Z,11.78
2022-11-05T18:35:13.449Z,11.75
2022-11-05T18:37:42.382Z,11.73
2022-11-05T18:40:11.222Z,11.71
2022-11-05T18:42:39.220Z,11.67
2022-11-05T18:45:08.038Z,11.66
2022-11-05T18:47:35.963Z,11.64
2022-11-05T18:50:05.640Z,11.63
2022-11-05T18:52:33.583Z,11.65
2022-11-05T18:55:01.421Z,11.67
2022-11-05T18:57:29.339Z,11.71
2022-11-05T18:59:57.128Z,11.74
2022-11-05T19:02:25.487Z,11.75
2022-11-05T19:05:22.520Z,11.78
2022-11-05T19:07:41.411Z,11.83
2022-11-05T19:10:09.700Z,11.88
2022-11-05T19:12:37.543Z,11.91
2022-11-05T19:15:06.286Z,11.95
2022-11-05T19:17:34.744Z,11.95
2022-11-05T19:20:03.319Z,11.94
2022-11-05T19:22:31.832Z,11.95
2022-11-05T19:24:59.705Z,11.95
2022-11-05T19:27:27.553Z,11.94
2022-11-05T19:29:55.350Z,11.92
2022-11-05T19:32:23.926Z,11.89
2022-11-05T19:34:52.082Z,11.86
2022-11-05T19:37:20.059Z,11.82
2022-11-05T19:39:47.746Z,11.80
2022-11-05T19:42:15.547Z,11.77
2022-11-05T19:44:43.772Z,11.75
2022-11-05T19:47:11.588Z,11.72
2022-11-05T19:49:39.340Z,11.69
2022-11-05T19:52:07.192Z,11.63
2022-11-05T19:54:35.980Z,11.59
2022-11-05T19:57:03.856Z,11.55
2022-11-05T19:59:31.702Z,11.51
2022-11-05T20:01:59.944Z,11.47
2022-11-05T20:04:27.901Z,11.45
2022-11-05T20:06:55.927Z,11.44
2022-11-05T20:09:24.284Z,11.44
2022-11-05T20:11:54.409Z,11.44
2022-11-05T20:14:24.297Z,11.45
2022-11-05T20:16:52.718Z,11.45
2022-11-05T20:19:22.380Z,11.46
2022-11-05T20:21:50.256Z,11.48
2022-11-05T20:24:24.759Z,11.46
2022-11-05T20:26:55.209Z,11.45
2022-11-05T20:29:29.102Z,11.45
2022-11-05T20:32:02.239Z,11.46
2022-11-05T20:34:31.119Z,11.46
2022-11-05T20:36:58.968Z,11.46
2022-11-05T20:39:26.865Z,11.44
2022-11-05T20:41:56.347Z,11.42
2022-11-05T20:44:24.089Z,11.39
2022-11-05T20:46:51.903Z,11.35
2022-11-05T20:49:24.154Z,11.32
2022-11-05T20:51:55.024Z,11.30
2022-11-05T20:54:24.110Z,11.28
2022-11-05T20:57:02.416Z,11.27
2022-11-05T20:59:35.522Z,11.24
2022-11-05T21:02:17.314Z,11.21
2022-11-05T21:04:53.974Z,11.11
2022-11-05T21:07:30.152Z,11.00
2022-11-05T21:09:58.961Z,10.96
2022-11-05T21:12:27.088Z,10.93
2022-11-05T21:14:55.191Z,10.87
2022-11-05T21:17:23.225Z,10.80
2022-11-05T21:19:51.303Z,10.75
2022-11-05T21:22:19.432Z,10.68
2022-11-05T21:24:47.559Z,10.61
2022-11-05T21:27:15.641Z,10.52
2022-11-05T21:29:43.783Z,10.45
2022-11-05T21:32:12.179Z,10.38
2022-11-05T21:34:41.275Z,10.33
2022-11-05T21:37:09.533Z,10.30
2022-11-05T21:39:38.017Z,10.28
2022-11-05T21:42:09.069Z,10.26
2022-11-05T21:45:00.030Z,10.25
2022-11-05T21:47:29.294Z,10.25
2022-11-05T21:50:00.089Z,10.25
2022-11-05T21:52:45.959Z,10.26
2022-11-05T21:55:26.162Z,10.28
2022-11-05T21:58:16.339Z,10.28
2022-11-05T22:00:44.343Z,10.26
2022-11-05T22:03:13.701Z,10.24
2022-11-05T22:05:41.834Z,10.20
2022-11-05T22:08:10.467Z,10.16
2022-11-05T22:10:38.776Z,10.11
2022-11-05T22:13:06.888Z,10.07
2022-11-05T22:15:35.001Z,10.02
2022-11-05T22:18:03.676Z,9.94
2022-11-05T22:20:32.242Z,9.86
2022-11-05T22:23:00.248Z,9.79
2022-11-05T22:25:28.201Z,9.70
2022-11-05T22:27:56.384Z,9.63
2022-11-05T22:30:24.375Z,9.55
2022-11-05T22:32:52.085Z,9.49
2022-11-05T22:35:21.783Z,9.44
2022-11-05T22:37:53.700Z,9.40
2022-11-05T22:40:23.973Z,9.40
2022-11-05T22:42:55.676Z,9.35
2022-11-05T22:45:23.701Z,9.28
2022-11-05T22:47:53.200Z,9.21
2022-11-05T22:50:21.224Z,9.17
2022-11-05T22:52:49.387Z,9.15
2022-11-05T22:55:17.342Z,9.14
2022-11-05T22:57:45.451Z,9.14
2022-11-05T23:00:17.383Z,9.15
2022-11-05T23:02:45.527Z,9.16
2022-11-05T23:05:15.875Z,9.18
2022-11-05T23:08:03.721Z,9.22
2022-11-05T23:10:51.139Z,9.30
2022-11-05T23:13:19.110Z,9.38
2022-11-05T23:16:01.104Z,9.45
2022-11-05T23:18:44.122Z,9.50
2022-11-05T23:21:32.160Z,9.52
2022-11-05T23:24:07.296Z,9.51
2022-11-05T23:26:51.806Z,9.48
2022-11-05T23:29:26.735Z,9.43
2022-11-05T23:32:15.031Z,9.35
2022-11-05T23:34:43.186Z,9.25
2022-11-05T23:37:22.340Z,9.18
2022-11-05T23:39:50.516Z,9.09
2022-11-05T23:42:32.689Z,8.99
2022-11-05T23:45:14.640Z,8.88
2022-11-05T23:48:03.134Z,8.79
2022-11-05T23:50:36.934Z,8.74
2022-11-05T23:53:08.291Z,8.67
2022-11-05T23:55:36.715Z,8.60
2022-11-05T23:58:05.073Z,8.55
